Kilbirnie, United Kingdom
Current Conditions -  °F | °C
As of 2:50 AM on Tuesday 21 Oct 2014 (Local Time) from EGPF Reporting Station
Broken Clouds Broken Clouds  
Wind Chill: 55°   Ceiling: 1200
Heat Index: 55°   Visibility: 6mi
Dew Point: 54°   Wind: 24mph
Humidity: 94%   Direction: 200°SSW
Pressure: 29.12"   Gusts: NA
Location:  55.75°N, 4.69°W
Report Text: EGPF 210150Z AUTO 20021KT 9999 BKN012/// //////TCU 13/12 Q0986 RERA
Loading
Personal Weather Stations






























Interactive Weather Map New forecast layout! Learn more

10-Day Weather Forecast

Advertisements
Track Severe Weather on mobile